createdAt,value
2022-10-26T00:00:54.385Z,95.48
2022-10-26T00:03:22.488Z,96.67
2022-10-26T00:05:50.433Z,96.81
2022-10-26T00:08:18.448Z,95.85
2022-10-26T00:10:46.352Z,97.63
2022-10-26T00:13:14.571Z,99.32
2022-10-26T00:15:43.103Z,99.57
2022-10-26T00:18:12.548Z,100.00
2022-10-26T00:20:40.566Z,100.00
2022-10-26T00:23:08.628Z,100.00
2022-10-26T00:25:36.595Z,100.00
2022-10-26T00:28:04.785Z,100.00
2022-10-26T00:30:32.727Z,100.00
2022-10-26T00:33:00.750Z,100.00
2022-10-26T00:35:44.993Z,100.00
2022-10-26T00:38:13.580Z,100.00
2022-10-26T00:40:42.085Z,100.00
2022-10-26T00:43:17.120Z,100.00
2022-10-26T00:45:46.625Z,100.00
2022-10-26T00:48:23.094Z,100.00
2022-10-26T00:50:54.689Z,100.00
2022-10-26T00:53:22.716Z,100.00
2022-10-26T00:55:53.665Z,100.00
2022-10-26T00:58:24.028Z,100.00
2022-10-26T01:00:52.808Z,100.00
2022-10-26T01:03:21.765Z,100.00
2022-10-26T01:05:54.984Z,100.00
2022-10-26T01:08:23.302Z,100.00
2022-10-26T01:10:51.885Z,100.00
2022-10-26T01:13:20.581Z,100.00
2022-10-26T01:15:54.434Z,100.00
2022-10-26T01:18:29.915Z,100.00
2022-10-26T01:21:24.941Z,100.00
2022-10-26T01:24:10.486Z,98.85
2022-10-26T01:27:02.735Z,99.14
2022-10-26T01:29:55.682Z,99.66
2022-10-26T01:32:32.068Z,99.27
2022-10-26T01:35:10.063Z,98.54
2022-10-26T01:37:43.095Z,98.56
2022-10-26T01:40:17.858Z,99.25
2022-10-26T01:42:52.568Z,99.22
2022-10-26T01:45:20.950Z,99.66
2022-10-26T01:47:51.331Z,99.15
2022-10-26T01:50:21.016Z,99.12
2022-10-26T01:52:51.560Z,98.26
2022-10-26T01:55:45.919Z,99.88
2022-10-26T01:58:33.386Z,100.00
2022-10-26T02:01:15.781Z,97.69
2022-10-26T02:03:51.976Z,98.32
2022-10-26T02:06:27.407Z,97.92
2022-10-26T02:09:07.667Z,96.81
2022-10-26T02:11:41.418Z,96.65
2022-10-26T02:14:19.614Z,93.53
2022-10-26T02:16:56.416Z,93.12
2022-10-26T02:19:35.173Z,94.98
2022-10-26T02:22:12.346Z,94.80
2022-10-26T02:24:42.498Z,95.81
2022-10-26T02:27:17.468Z,94.80
2022-10-26T02:29:46.486Z,94.11
2022-10-26T02:32:15.592Z,94.24
2022-10-26T02:34:47.256Z,93.81
2022-10-26T02:37:19.479Z,94.17
2022-10-26T02:39:49.249Z,93.23
2022-10-26T02:42:19.432Z,93.84
2022-10-26T02:44:51.514Z,93.51
2022-10-26T02:47:20.785Z,95.52
2022-10-26T02:49:50.492Z,96.53
2022-10-26T02:52:25.234Z,96.22
2022-10-26T02:54:58.030Z,95.87
2022-10-26T02:57:32.885Z,96.11
2022-10-26T03:00:01.753Z,94.59
2022-10-26T03:02:30.781Z,94.44
2022-10-26T03:05:08.814Z,95.38
2022-10-26T03:07:36.891Z,96.61
2022-10-26T03:10:05.299Z,97.62
2022-10-26T03:12:33.319Z,98.72
2022-10-26T03:15:01.348Z,97.53
2022-10-26T03:17:29.321Z,98.48
2022-10-26T03:19:57.492Z,98.63
2022-10-26T03:22:26.957Z,99.32
2022-10-26T03:24:55.012Z,99.94
2022-10-26T03:27:23.152Z,100.00
2022-10-26T03:29:51.281Z,100.00
2022-10-26T03:32:19.257Z,100.00
2022-10-26T03:34:47.369Z,99.84
2022-10-26T03:37:15.400Z,99.86
2022-10-26T03:39:44.730Z,99.76
2022-10-26T03:42:12.695Z,100.00
2022-10-26T03:44:40.615Z,100.00
2022-10-26T03:47:08.631Z,99.08
2022-10-26T03:49:37.103Z,98.37
2022-10-26T03:52:05.739Z,100.00
2022-10-26T03:54:33.699Z,100.00
2022-10-26T03:57:03.003Z,100.00
2022-10-26T03:59:31.031Z,100.00
2022-10-26T04:01:59.055Z,100.00
2022-10-26T04:04:27.326Z,100.00
2022-10-26T04:06:55.404Z,100.00
2022-10-26T04:09:23.627Z,100.00
2022-10-26T04:11:51.604Z,100.00
2022-10-26T04:14:20.958Z,100.00
2022-10-26T04:16:48.983Z,100.00
2022-10-26T04:19:17.467Z,100.00
2022-10-26T04:21:45.463Z,100.00
2022-10-26T04:24:13.680Z,100.00
2022-10-26T04:26:41.613Z,100.00
2022-10-26T04:29:10.147Z,100.00
2022-10-26T04:31:39.512Z,100.00
2022-10-26T04:34:07.463Z,100.00
2022-10-26T04:36:35.727Z,100.00
2022-10-26T04:39:03.844Z,100.00
2022-10-26T04:41:32.173Z,100.00
2022-10-26T04:44:00.241Z,99.11
2022-10-26T04:46:28.403Z,98.37
2022-10-26T04:48:57.717Z,97.84
2022-10-26T04:51:25.690Z,96.68
2022-10-26T04:53:55.339Z,97.87
2022-10-26T04:56:23.356Z,100.00
2022-10-26T04:58:51.393Z,100.00
2022-10-26T05:01:19.424Z,97.97
2022-10-26T05:03:50.704Z,95.61
2022-10-26T05:06:20.301Z,94.68
2022-10-26T05:08:48.578Z,95.34
2022-10-26T05:11:16.824Z,94.33
2022-10-26T05:13:44.733Z,93.68
2022-10-26T05:16:12.689Z,93.93
2022-10-26T05:18:40.666Z,97.20
2022-10-26T05:21:08.633Z,100.00
2022-10-26T05:23:38.062Z,100.00
2022-10-26T05:26:06.340Z,100.00
2022-10-26T05:28:34.285Z,100.00
2022-10-26T05:31:02.276Z,100.00
2022-10-26T05:33:30.282Z,100.00
2022-10-26T05:35:58.262Z,100.00
2022-10-26T05:41:01.315Z,100.00
2022-10-26T05:43:30.348Z,100.00
2022-10-26T05:45:58.406Z,100.00
2022-10-26T05:48:26.389Z,100.00
2022-10-26T05:50:54.436Z,100.00
2022-10-26T05:53:22.384Z,100.00
2022-10-26T05:55:50.978Z,100.00
2022-10-26T05:58:21.157Z,100.00
2022-10-26T06:01:15.378Z,100.00
2022-10-26T06:03:56.190Z,98.79
2022-10-26T06:06:24.810Z,96.92
2022-10-26T06:08:53.298Z,95.40
2022-10-26T06:11:21.936Z,94.90
2022-10-26T06:13:54.642Z,94.34
2022-10-26T06:16:35.156Z,94.53
2022-10-26T06:19:13.519Z,94.67
2022-10-26T06:21:54.089Z,94.81
2022-10-26T06:24:29.577Z,93.81
2022-10-26T06:27:02.963Z,93.25
2022-10-26T06:29:44.492Z,92.65
2022-10-26T06:32:13.158Z,92.60
2022-10-26T06:34:46.424Z,92.67
2022-10-26T06:37:15.075Z,95.87
2022-10-26T06:39:50.017Z,96.11
2022-10-26T06:42:21.272Z,93.96
2022-10-26T06:44:51.370Z,93.58
2022-10-26T06:47:27.169Z,92.92
2022-10-26T06:50:05.006Z,92.61
2022-10-26T06:52:37.866Z,92.69
2022-10-26T06:55:06.821Z,92.58
2022-10-26T06:57:36.916Z,92.15
2022-10-26T07:00:09.482Z,92.22
2022-10-26T07:02:37.597Z,92.27
2022-10-26T07:05:10.236Z,91.94
2022-10-26T07:07:43.030Z,92.11
2022-10-26T07:10:11.726Z,92.00
2022-10-26T07:12:39.833Z,92.48
2022-10-26T07:17:46.789Z,91.95
2022-10-26T07:20:15.535Z,91.20
2022-10-26T07:22:43.891Z,91.25
2022-10-26T07:25:13.270Z,91.25
2022-10-26T07:27:41.218Z,90.15
2022-10-26T07:30:11.923Z,89.89
2022-10-26T07:32:39.949Z,89.95
2022-10-26T07:35:08.529Z,89.36
2022-10-26T07:37:36.545Z,89.38
2022-10-26T07:40:06.755Z,90.68
2022-10-26T07:42:36.647Z,90.72
2022-10-26T07:45:06.084Z,89.91
2022-10-26T07:47:35.572Z,88.88
2022-10-26T07:50:05.108Z,88.98
2022-10-26T07:52:34.940Z,88.81
2022-10-26T07:55:02.904Z,88.24
2022-10-26T07:57:30.899Z,88.71
2022-10-26T07:59:59.014Z,88.47
2022-10-26T08:02:27.062Z,89.74
2022-10-26T08:04:56.489Z,88.90
2022-10-26T08:07:25.949Z,88.13
2022-10-26T08:09:54.104Z,87.64
2022-10-26T08:12:22.333Z,87.40
2022-10-26T08:14:50.331Z,87.26
2022-10-26T08:17:18.297Z,86.41
2022-10-26T08:19:48.935Z,86.75
2022-10-26T08:22:18.375Z,87.49
2022-10-26T08:24:47.013Z,87.61
2022-10-26T08:27:15.160Z,88.38
2022-10-26T08:29:43.945Z,86.54
2022-10-26T08:32:12.013Z,85.90
2022-10-26T08:34:39.983Z,86.44
2022-10-26T08:37:08.015Z,85.69
2022-10-26T08:39:37.477Z,86.26
2022-10-26T08:42:11.889Z,86.75
2022-10-26T08:44:45.309Z,86.04
2022-10-26T08:50:00.416Z,84.60
2022-10-26T08:52:35.797Z,84.30
2022-10-26T08:55:12.059Z,82.52
2022-10-26T08:57:42.458Z,82.61
2022-10-26T09:00:15.517Z,82.80
2022-10-26T09:02:43.597Z,81.71
2022-10-26T09:05:17.192Z,80.93
2022-10-26T09:07:55.967Z,79.40
2022-10-26T09:10:41.211Z,79.73
2022-10-26T09:13:23.928Z,79.19
2022-10-26T09:16:01.208Z,79.06
2022-10-26T09:18:38.739Z,78.60
2022-10-26T09:21:14.965Z,78.42
2022-10-26T09:24:00.436Z,79.25
2022-10-26T09:26:40.215Z,78.33
2022-10-26T09:29:14.067Z,78.09
2022-10-26T09:31:43.872Z,78.62
2022-10-26T09:34:20.532Z,77.68
2022-10-26T09:36:48.649Z,78.09
2022-10-26T09:39:25.360Z,78.53
2022-10-26T09:41:59.379Z,78.73
2022-10-26T09:44:32.595Z,78.43
2022-10-26T09:47:06.712Z,78.70
2022-10-26T09:49:41.388Z,79.09
2022-10-26T09:54:42.546Z,76.92
2022-10-26T09:57:16.266Z,77.13
2022-10-26T09:59:44.596Z,76.12
2022-10-26T10:02:34.731Z,77.15
2022-10-26T10:05:03.230Z,74.77
2022-10-26T10:07:31.303Z,73.80
2022-10-26T10:10:15.853Z,73.30
2022-10-26T10:12:47.466Z,73.19
2022-10-26T10:15:20.872Z,74.17
2022-10-26T10:17:53.004Z,74.99
2022-10-26T10:20:23.785Z,73.57
2022-10-26T10:22:59.588Z,72.46
2022-10-26T10:25:36.715Z,71.92
2022-10-26T10:30:57.381Z,72.11
2022-10-26T10:33:34.927Z,73.32
2022-10-26T10:36:04.852Z,72.79
2022-10-26T10:38:39.043Z,71.00
2022-10-26T10:41:15.616Z,70.44
2022-10-26T10:43:48.371Z,69.85
2022-10-26T10:46:21.384Z,71.72
2022-10-26T10:48:52.931Z,72.48
2022-10-26T10:51:23.417Z,73.16
2022-10-26T10:53:53.391Z,70.78
2022-10-26T10:56:41.610Z,70.32
2022-10-26T10:59:29.822Z,69.34
2022-10-26T11:02:19.393Z,71.94
2022-10-26T11:05:05.779Z,70.06
2022-10-26T11:07:47.115Z,70.32
2022-10-26T11:10:18.988Z,69.72
2022-10-26T11:12:52.984Z,68.08
2022-10-26T11:15:27.013Z,67.77
2022-10-26T11:18:05.122Z,68.32
2022-10-26T11:20:36.628Z,69.70
2022-10-26T11:23:10.622Z,69.51
2022-10-26T11:25:46.136Z,68.82
2022-10-26T11:28:17.799Z,70.20
2022-10-26T11:30:51.193Z,69.32
2022-10-26T11:33:24.610Z,69.34
2022-10-26T11:35:58.930Z,70.80
2022-10-26T11:38:46.250Z,68.14
2022-10-26T11:41:31.062Z,68.00
2022-10-26T11:44:06.863Z,68.42
2022-10-26T11:46:42.134Z,65.05
2022-10-26T11:49:18.634Z,65.08
2022-10-26T11:51:53.361Z,63.05
2022-10-26T11:54:25.261Z,62.54
2022-10-26T11:56:57.070Z,61.68
2022-10-26T11:59:30.812Z,59.75
2022-10-26T12:02:07.464Z,59.36
2022-10-26T12:04:38.952Z,57.09
2022-10-26T12:07:14.483Z,56.60
2022-10-26T12:09:45.181Z,55.43
2022-10-26T12:12:22.923Z,54.90
2022-10-26T12:14:57.539Z,52.32
2022-10-26T12:17:36.006Z,53.06
2022-10-26T12:20:15.070Z,51.25
2022-10-26T12:22:43.755Z,51.83
2022-10-26T12:25:21.786Z,55.43
2022-10-26T12:27:55.477Z,54.85
2022-10-26T12:30:30.357Z,56.54
2022-10-26T12:33:01.554Z,54.10
2022-10-26T12:35:44.950Z,54.72
2022-10-26T12:38:57.902Z,54.25
2022-10-26T12:41:27.537Z,52.78
2022-10-26T12:44:26.065Z,55.59
2022-10-26T12:46:54.030Z,58.04
2022-10-26T12:49:56.388Z,58.25
2022-10-26T12:52:44.749Z,58.14
2022-10-26T12:55:42.571Z,56.69
2022-10-26T12:58:26.460Z,55.57
2022-10-26T13:01:15.862Z,56.69
2022-10-26T13:03:56.830Z,58.28
2022-10-26T13:06:46.858Z,58.47
2022-10-26T13:09:21.233Z,57.43
2022-10-26T13:11:51.087Z,60.50
2022-10-26T13:14:24.965Z,61.34
2022-10-26T13:16:53.805Z,61.58
2022-10-26T13:19:27.682Z,61.87
2022-10-26T13:22:00.055Z,60.37
2022-10-26T13:24:32.377Z,58.98
2022-10-26T13:27:40.805Z,57.58
2022-10-26T13:30:22.725Z,57.27
2022-10-26T13:32:54.210Z,57.09
2022-10-26T13:35:24.927Z,55.71
2022-10-26T13:37:55.294Z,54.75
2022-10-26T13:40:27.320Z,53.14
2022-10-26T13:42:58.563Z,53.18
2022-10-26T13:45:29.353Z,52.65
2022-10-26T13:48:02.542Z,51.68
2022-10-26T13:50:37.484Z,52.07
2022-10-26T13:53:11.299Z,52.40
2022-10-26T13:55:49.992Z,51.75
2022-10-26T13:58:40.198Z,52.84
2022-10-26T14:01:18.721Z,52.68
2022-10-26T14:03:48.394Z,52.33
2022-10-26T14:06:21.467Z,52.07
2022-10-26T14:08:51.743Z,53.47
2022-10-26T14:11:23.526Z,52.35
2022-10-26T14:13:52.891Z,52.26
2022-10-26T14:16:22.641Z,52.81
2022-10-26T14:18:50.889Z,55.14
2022-10-26T14:21:21.626Z,54.11
2022-10-26T14:23:52.392Z,54.24
2022-10-26T14:26:24.650Z,53.72
2022-10-26T14:28:54.654Z,52.51
2022-10-26T14:31:25.404Z,51.57
2022-10-26T14:33:54.758Z,51.08
2022-10-26T14:36:27.032Z,50.75
2022-10-26T14:39:00.121Z,51.65
2022-10-26T14:41:30.610Z,53.77
2022-10-26T14:44:00.807Z,53.73
2022-10-26T14:46:33.514Z,54.76
2022-10-26T14:49:03.209Z,54.11
2022-10-26T14:51:32.292Z,53.42
2022-10-26T14:54:01.842Z,53.77
2022-10-26T14:56:39.685Z,53.71
2022-10-26T14:59:13.344Z,53.62
2022-10-26T15:01:53.664Z,53.56
2022-10-26T15:04:33.914Z,54.23
2022-10-26T15:07:17.955Z,54.51
2022-10-26T15:09:47.270Z,55.73
2022-10-26T15:12:28.682Z,55.86
2022-10-26T15:14:57.548Z,55.93
2022-10-26T15:17:32.063Z,57.23
2022-10-26T15:20:05.432Z,56.80
2022-10-26T15:22:34.627Z,56.22
2022-10-26T15:25:05.362Z,56.48
2022-10-26T15:27:34.894Z,56.61
2022-10-26T15:30:22.632Z,56.08
2022-10-26T15:32:51.362Z,55.66
2022-10-26T15:35:30.162Z,55.83
2022-10-26T15:38:00.763Z,55.94
2022-10-26T15:40:30.704Z,56.67
2022-10-26T15:43:02.160Z,57.73
2022-10-26T15:45:33.268Z,57.60
2022-10-26T15:48:19.367Z,58.29
2022-10-26T15:50:47.425Z,58.95
2022-10-26T15:53:20.612Z,58.65
2022-10-26T15:55:49.130Z,58.83
2022-10-26T15:58:18.906Z,59.34
2022-10-26T16:00:47.025Z,59.37
2022-10-26T16:03:18.056Z,59.18
2022-10-26T16:05:46.139Z,59.20
2022-10-26T16:08:18.055Z,59.07
2022-10-26T16:10:48.456Z,59.05
2022-10-26T16:13:18.623Z,58.90
2022-10-26T16:15:46.724Z,59.18
2022-10-26T16:18:14.945Z,59.27
2022-10-26T16:20:45.917Z,59.97
2022-10-26T16:23:13.965Z,60.03
2022-10-26T16:25:44.160Z,60.34
2022-10-26T16:28:13.618Z,60.57
2022-10-26T16:30:43.744Z,60.66
2022-10-26T16:33:11.762Z,60.99
2022-10-26T16:35:39.749Z,61.22
2022-10-26T16:38:07.917Z,61.26
2022-10-26T16:40:35.885Z,60.91
2022-10-26T16:43:03.896Z,61.82
2022-10-26T16:45:31.875Z,62.26
2022-10-26T16:48:05.772Z,63.12
2022-10-26T16:50:36.302Z,62.99
2022-10-26T16:53:04.664Z,63.05
2022-10-26T16:55:33.031Z,63.14
2022-10-26T16:58:02.233Z,63.29
2022-10-26T17:00:30.419Z,63.37
2022-10-26T17:03:00.132Z,63.44
2022-10-26T17:05:29.766Z,63.71
2022-10-26T17:07:57.697Z,63.88
2022-10-26T17:10:27.974Z,64.08
2022-10-26T17:12:57.301Z,64.33
2022-10-26T17:15:28.902Z,64.63
2022-10-26T17:17:57.319Z,65.04
2022-10-26T17:20:25.308Z,65.32
2022-10-26T17:22:54.623Z,65.67
2022-10-26T17:25:22.824Z,66.85
2022-10-26T17:27:50.812Z,67.25
2022-10-26T17:30:18.948Z,67.52
2022-10-26T17:32:47.010Z,67.96
2022-10-26T17:35:16.958Z,67.98
2022-10-26T17:37:45.020Z,68.63
2022-10-26T17:40:14.613Z,68.78
2022-10-26T17:42:42.625Z,69.12
2022-10-26T17:45:11.148Z,69.57
2022-10-26T17:47:39.264Z,69.62
2022-10-26T17:50:08.344Z,69.75
2022-10-26T17:52:36.467Z,70.06
2022-10-26T17:55:04.667Z,70.67
2022-10-26T17:57:34.679Z,70.58
2022-10-26T18:00:03.921Z,70.95
2022-10-26T18:02:40.480Z,71.41
2022-10-26T18:05:09.649Z,71.65
2022-10-26T18:07:37.678Z,71.85
2022-10-26T18:10:13.954Z,71.81
2022-10-26T18:12:55.632Z,72.12
2022-10-26T18:15:24.875Z,72.46
2022-10-26T18:17:56.847Z,72.67
2022-10-26T18:20:27.946Z,72.84
2022-10-26T18:22:56.707Z,72.57
2022-10-26T18:25:24.923Z,72.82
2022-10-26T18:27:53.724Z,73.44
2022-10-26T18:30:24.960Z,73.78
2022-10-26T18:32:53.930Z,74.30
2022-10-26T18:35:22.383Z,74.51
2022-10-26T18:37:51.550Z,74.31
2022-10-26T18:40:20.206Z,74.13
2022-10-26T18:42:49.314Z,74.12
2022-10-26T18:45:17.489Z,74.83
2022-10-26T18:47:46.802Z,74.39
2022-10-26T18:50:15.036Z,74.63
2022-10-26T18:52:43.061Z,74.73
2022-10-26T18:55:11.245Z,74.16
2022-10-26T18:57:39.310Z,74.15
2022-10-26T19:00:08.480Z,73.97
2022-10-26T19:02:36.599Z,73.93
2022-10-26T19:05:06.746Z,74.10
2022-10-26T19:07:34.764Z,74.19
2022-10-26T19:10:02.688Z,74.20
2022-10-26T19:12:30.706Z,74.35
2022-10-26T19:14:58.799Z,74.25
2022-10-26T19:17:27.254Z,74.33
2022-10-26T19:19:55.220Z,74.52
2022-10-26T19:22:24.615Z,73.99
2022-10-26T19:24:52.618Z,73.61
2022-10-26T19:27:20.577Z,73.36
2022-10-26T19:29:48.575Z,73.53
2022-10-26T19:32:16.607Z,74.95
2022-10-26T19:34:44.669Z,75.56
2022-10-26T19:37:13.493Z,75.18
2022-10-26T19:39:43.420Z,75.14
2022-10-26T19:42:11.386Z,74.57
2022-10-26T19:44:39.514Z,75.76
2022-10-26T19:47:07.785Z,77.84
2022-10-26T19:49:35.871Z,77.35
2022-10-26T19:52:03.859Z,77.36
2022-10-26T19:54:31.791Z,78.58
2022-10-26T19:57:01.165Z,79.07
2022-10-26T19:59:29.178Z,79.60
2022-10-26T20:01:58.198Z,79.25
2022-10-26T20:04:26.187Z,79.93
2022-10-26T20:06:54.236Z,78.94
2022-10-26T20:09:22.186Z,78.12
2022-10-26T20:11:50.564Z,77.39
2022-10-26T20:14:19.927Z,77.23
2022-10-26T20:16:48.014Z,79.13
2022-10-26T20:19:15.905Z,79.71
2022-10-26T20:21:43.879Z,78.82
2022-10-26T20:24:12.008Z,78.52
2022-10-26T20:26:40.170Z,78.77
2022-10-26T20:29:08.105Z,78.84
2022-10-26T20:31:37.473Z,80.47
2022-10-26T20:34:05.667Z,81.28
2022-10-26T20:36:33.654Z,80.66
2022-10-26T20:39:02.220Z,80.13
2022-10-26T20:41:30.637Z,81.68
2022-10-26T20:43:59.370Z,82.35
2022-10-26T20:46:28.811Z,83.09
2022-10-26T20:48:58.819Z,85.24
2022-10-26T20:51:40.013Z,84.90
2022-10-26T20:54:19.097Z,85.97
2022-10-26T20:56:49.516Z,86.19
2022-10-26T20:59:23.419Z,85.96
2022-10-26T21:01:51.572Z,84.69
2022-10-26T21:04:20.947Z,84.16
2022-10-26T21:06:48.977Z,84.82
2022-10-26T21:09:16.921Z,85.20
2022-10-26T21:11:45.526Z,84.77
2022-10-26T21:14:13.599Z,84.67
2022-10-26T21:16:41.537Z,84.54
2022-10-26T21:19:09.507Z,87.06
2022-10-26T21:21:38.901Z,86.09
2022-10-26T21:24:07.724Z,86.36
2022-10-26T21:26:35.653Z,86.27
2022-10-26T21:29:03.695Z,86.10
2022-10-26T21:31:31.627Z,85.42
2022-10-26T21:33:59.665Z,86.56
2022-10-26T21:36:27.743Z,87.57
2022-10-26T21:38:57.283Z,87.24
2022-10-26T21:44:08.405Z,88.04
2022-10-26T21:46:38.564Z,87.91
2022-10-26T21:49:06.574Z,90.12
2022-10-26T21:51:35.056Z,89.37
2022-10-26T21:54:04.714Z,90.24
2022-10-26T21:56:32.711Z,89.84
2022-10-26T21:59:01.616Z,89.36
2022-10-26T22:01:29.723Z,89.05
2022-10-26T22:03:57.833Z,89.29
2022-10-26T22:06:26.096Z,89.39
2022-10-26T22:08:54.442Z,90.17
2022-10-26T22:11:25.655Z,90.04
2022-10-26T22:13:54.245Z,90.40
2022-10-26T22:16:24.547Z,91.24
2022-10-26T22:18:54.439Z,90.92
2022-10-26T22:21:25.096Z,90.80
2022-10-26T22:23:53.883Z,91.21
2022-10-26T22:26:24.968Z,91.18
2022-10-26T22:28:54.776Z,93.02
2022-10-26T22:31:25.552Z,93.31
2022-10-26T22:33:54.025Z,95.02
2022-10-26T22:36:22.497Z,95.80
2022-10-26T22:38:50.884Z,95.18
2022-10-26T22:41:20.063Z,93.96
2022-10-26T22:43:50.766Z,92.54
2022-10-26T22:46:21.195Z,93.27
2022-10-26T22:48:49.345Z,92.49
2022-10-26T22:51:19.792Z,92.70
2022-10-26T22:53:51.899Z,94.25
2022-10-26T22:56:20.289Z,93.41
2022-10-26T22:58:50.310Z,92.86
2022-10-26T23:01:20.516Z,92.04
2022-10-26T23:03:48.579Z,93.37
2022-10-26T23:06:19.455Z,94.23
2022-10-26T23:08:47.423Z,96.00
2022-10-26T23:11:18.014Z,95.93
2022-10-26T23:13:46.025Z,96.15
2022-10-26T23:16:17.966Z,96.37
2022-10-26T23:18:46.113Z,95.50
2022-10-26T23:21:15.138Z,94.98
2022-10-26T23:23:43.357Z,95.70
2022-10-26T23:26:13.341Z,95.45
2022-10-26T23:28:42.935Z,95.21
2022-10-26T23:31:16.499Z,94.72
2022-10-26T23:33:44.922Z,95.63
2022-10-26T23:36:13.127Z,95.81
2022-10-26T23:38:41.331Z,95.35
2022-10-26T23:41:12.108Z,95.95
2022-10-26T23:43:41.671Z,96.07
2022-10-26T23:46:09.677Z,94.91
2022-10-26T23:48:39.051Z,94.59
2022-10-26T23:51:07.342Z,93.51
2022-10-26T23:53:35.598Z,93.99
2022-10-26T23:56:03.982Z,93.24
2022-10-26T23:58:32.110Z,94.84
